Meteoalarm sivustolla ongelmia. Varoituksia ei saada haettua. Yritä myöhemmin uudestaan.: www.meteoalarm.eu .

Lähimmät METAR asemat

 

EFPO - Pori (mil/Civ), Finland
Distance from station: PLU 42km
Päivitetty: 24/02/2019 01:50
Selkeätä
Selkeätä
 Wind from LO
Tuuli: LO 6 km/h
Lämpötila: 2°C
Kastepiste: 0°C
Kosteus: 87%
Ilmanpaine: 1024 hPa
Yhteenveto: Selkeätä
Visibility: greater than 10 km
2019/02/23 23:50 EFPO 232350Z AUTO 22003KT CAVOK 02/00 Q1024
EFTU - Turku/Abo, Finland
Distance from station: E 68km
Päivitetty: 24/02/2019 01:50
Selkeätä
Selkeätä
 Wind from L
Tuuli: L 15 km/h
Lämpötila: 0°C
Wind Chill: -4°C
Kastepiste: -1°C
Kosteus: 93%
Ilmanpaine: 1026 hPa
Yhteenveto: Selkeätä
Visibility: greater than 10 km
2019/02/23 23:50 EFTU 232350Z AUTO 26008KT CAVOK M00/M01 Q1026
 
EFTP - Tampere/Pirkkala, Finland
Distance from station: IKO 84km
Päivitetty: 24/02/2019 01:50
Selkeätä
Selkeätä
 Wind from LO
Tuuli: LO 7 km/h
Lämpötila: 0°C
Wind Chill: -3°C
Kastepiste: 0°C
Kosteus: 100%
Ilmanpaine: 1024 hPa
Yhteenveto: Selkeätä
Visibility: greater than 10 km
2019/02/23 23:50 EFTP 232350Z AUTO 22004KT CAVOK 00/00 Q1024